sensor_id;sensor_type;location;lat;lon;timestamp;temperature;humidity
32895;DHT22;19251;49.484;8.260;2023-05-07T00:00:53;18.00;22.00
32895;DHT22;19251;49.484;8.260;2023-05-07T00:05:55;17.90;21.80
32895;DHT22;19251;49.484;8.260;2023-05-07T00:10:57;17.90;21.90
32895;DHT22;19251;49.484;8.260;2023-05-07T00:15:59;17.80;21.90
32895;DHT22;19251;49.484;8.260;2023-05-07T00:21:01;17.70;22.00
32895;DHT22;19251;49.484;8.260;2023-05-07T00:26:03;17.70;22.60
32895;DHT22;19251;49.484;8.260;2023-05-07T00:31:06;17.60;22.30
32895;DHT22;19251;49.484;8.260;2023-05-07T00:36:08;17.60;22.50
32895;DHT22;19251;49.484;8.260;2023-05-07T00:41:10;17.50;22.40
32895;DHT22;19251;49.484;8.260;2023-05-07T00:46:12;17.50;22.50
32895;DHT22;19251;49.484;8.260;2023-05-07T00:51:17;17.40;22.50
32895;DHT22;19251;49.484;8.260;2023-05-07T00:56:20;17.30;22.70
32895;DHT22;19251;49.484;8.260;2023-05-07T01:01:22;17.30;22.80
32895;DHT22;19251;49.484;8.260;2023-05-07T01:06:24;17.20;22.80
32895;DHT22;19251;49.484;8.260;2023-05-07T01:11:28;17.20;23.00
32895;DHT22;19251;49.484;8.260;2023-05-07T01:16:30;17.20;23.00
32895;DHT22;19251;49.484;8.260;2023-05-07T01:21:33;17.10;23.10
32895;DHT22;19251;49.484;8.260;2023-05-07T01:26:37;17.00;23.10
32895;DHT22;19251;49.484;8.260;2023-05-07T01:31:40;17.00;23.10
32895;DHT22;19251;49.484;8.260;2023-05-07T01:36:44;16.90;23.10
32895;DHT22;19251;49.484;8.260;2023-05-07T01:41:46;16.80;23.10
32895;DHT22;19251;49.484;8.260;2023-05-07T01:46:48;16.80;23.10
32895;DHT22;19251;49.484;8.260;2023-05-07T01:51:51;16.70;23.10
32895;DHT22;19251;49.484;8.260;2023-05-07T01:56:53;16.60;23.20
32895;DHT22;19251;49.484;8.260;2023-05-07T02:01:56;16.60;23.20
32895;DHT22;19251;49.484;8.260;2023-05-07T02:06:58;16.50;23.20
32895;DHT22;19251;49.484;8.260;2023-05-07T02:12:01;16.40;23.20
32895;DHT22;19251;49.484;8.260;2023-05-07T02:17:03;16.40;23.50
32895;DHT22;19251;49.484;8.260;2023-05-07T02:22:06;16.30;23.50
32895;DHT22;19251;49.484;8.260;2023-05-07T02:27:09;16.30;23.60
32895;DHT22;19251;49.484;8.260;2023-05-07T02:32:12;16.20;23.70
32895;DHT22;19251;49.484;8.260;2023-05-07T02:37:14;16.10;23.70
32895;DHT22;19251;49.484;8.260;2023-05-07T02:42:16;16.10;23.80
32895;DHT22;19251;49.484;8.260;2023-05-07T02:47:19;16.10;23.90
32895;DHT22;19251;49.484;8.260;2023-05-07T02:52:22;15.90;23.90
32895;DHT22;19251;49.484;8.260;2023-05-07T02:57:24;16.00;24.20
32895;DHT22;19251;49.484;8.260;2023-05-07T03:02:26;15.90;24.10
32895;DHT22;19251;49.484;8.260;2023-05-07T03:07:29;15.80;24.10
32895;DHT22;19251;49.484;8.260;2023-05-07T03:12:32;15.80;24.10
32895;DHT22;19251;49.484;8.260;2023-05-07T03:17:34;15.70;24.10
32895;DHT22;19251;49.484;8.260;2023-05-07T03:22:36;15.60;24.20
32895;DHT22;19251;49.484;8.260;2023-05-07T03:27:38;15.60;24.50
32895;DHT22;19251;49.484;8.260;2023-05-07T03:32:40;15.60;24.50
32895;DHT22;19251;49.484;8.260;2023-05-07T03:37:43;15.50;24.60
32895;DHT22;19251;49.484;8.260;2023-05-07T03:42:46;15.50;24.70
32895;DHT22;19251;49.484;8.260;2023-05-07T03:47:49;15.50;25.30
32895;DHT22;19251;49.484;8.260;2023-05-07T03:52:52;15.40;24.60
32895;DHT22;19251;49.484;8.260;2023-05-07T03:57:55;15.30;24.60
32895;DHT22;19251;49.484;8.260;2023-05-07T04:02:59;15.30;24.80
32895;DHT22;19251;49.484;8.260;2023-05-07T04:08:02;15.20;24.80
32895;DHT22;19251;49.484;8.260;2023-05-07T04:13:05;15.10;24.80
32895;DHT22;19251;49.484;8.260;2023-05-07T04:18:09;15.10;24.90
32895;DHT22;19251;49.484;8.260;2023-05-07T04:23:11;15.10;25.00
32895;DHT22;19251;49.484;8.260;2023-05-07T04:28:14;15.00;25.00
32895;DHT22;19251;49.484;8.260;2023-05-07T04:33:16;15.10;25.20
32895;DHT22;19251;49.484;8.260;2023-05-07T04:38:19;15.10;25.30
32895;DHT22;19251;49.484;8.260;2023-05-07T04:43:21;15.10;25.60
32895;DHT22;19251;49.484;8.260;2023-05-07T04:48:24;15.10;25.70
32895;DHT22;19251;49.484;8.260;2023-05-07T04:53:27;15.20;25.80
32895;DHT22;19251;49.484;8.260;2023-05-07T04:58:30;15.30;26.00
32895;DHT22;19251;49.484;8.260;2023-05-07T05:03:34;15.30;26.00
32895;DHT22;19251;49.484;8.260;2023-05-07T05:08:37;15.50;26.50
32895;DHT22;19251;49.484;8.260;2023-05-07T05:13:39;15.50;26.50
32895;DHT22;19251;49.484;8.260;2023-05-07T05:18:42;15.70;26.70
32895;DHT22;19251;49.484;8.260;2023-05-07T05:23:45;15.80;26.80
32895;DHT22;19251;49.484;8.260;2023-05-07T05:28:49;16.00;27.00
32895;DHT22;19251;49.484;8.260;2023-05-07T05:33:52;16.00;27.00
32895;DHT22;19251;49.484;8.260;2023-05-07T05:38:55;16.30;27.10
32895;DHT22;19251;49.484;8.260;2023-05-07T05:43:57;16.50;27.20
32895;DHT22;19251;49.484;8.260;2023-05-07T05:49:00;16.70;27.40
32895;DHT22;19251;49.484;8.260;2023-05-07T05:54:02;16.90;27.40
32895;DHT22;19251;49.484;8.260;2023-05-07T05:59:06;17.20;27.60
32895;DHT22;19251;49.484;8.260;2023-05-07T06:04:08;17.40;27.80
32895;DHT22;19251;49.484;8.260;2023-05-07T06:09:10;17.60;27.70
32895;DHT22;19251;49.484;8.260;2023-05-07T06:14:14;17.80;27.80
32895;DHT22;19251;49.484;8.260;2023-05-07T06:19:17;18.10;27.80
32895;DHT22;19251;49.484;8.260;2023-05-07T06:24:23;18.40;27.80
32895;DHT22;19251;49.484;8.260;2023-05-07T06:29:25;18.60;27.60
32895;DHT22;19251;49.484;8.260;2023-05-07T06:34:28;18.90;27.60
32895;DHT22;19251;49.484;8.260;2023-05-07T06:39:31;19.10;27.50
32895;DHT22;19251;49.484;8.260;2023-05-07T06:44:33;19.40;27.20
32895;DHT22;19251;49.484;8.260;2023-05-07T06:49:38;19.50;26.70
32895;DHT22;19251;49.484;8.260;2023-05-07T06:54:40;19.70;26.60
32895;DHT22;19251;49.484;8.260;2023-05-07T06:59:43;20.00;26.30
32895;DHT22;19251;49.484;8.260;2023-05-07T07:04:45;20.10;25.90
32895;DHT22;19251;49.484;8.260;2023-05-07T07:09:49;20.20;26.00
32895;DHT22;19251;49.484;8.260;2023-05-07T07:14:52;20.40;25.80
32895;DHT22;19251;49.484;8.260;2023-05-07T07:19:56;20.60;25.70
32895;DHT22;19251;49.484;8.260;2023-05-07T07:24:58;20.80;25.40
32895;DHT22;19251;49.484;8.260;2023-05-07T07:30:01;21.00;24.70
32895;DHT22;19251;49.484;8.260;2023-05-07T07:35:05;21.20;24.80
32895;DHT22;19251;49.484;8.260;2023-05-07T07:40:07;21.30;24.20
32895;DHT22;19251;49.484;8.260;2023-05-07T07:45:10;21.50;24.10
32895;DHT22;19251;49.484;8.260;2023-05-07T07:50:14;21.60;23.90
32895;DHT22;19251;49.484;8.260;2023-05-07T07:55:39;21.80;23.70
32895;DHT22;19251;49.484;8.260;2023-05-07T08:00:43;21.90;23.20
32895;DHT22;19251;49.484;8.260;2023-05-07T08:05:45;22.00;22.40
32895;DHT22;19251;49.484;8.260;2023-05-07T08:10:48;22.20;22.80
32895;DHT22;19251;49.484;8.260;2023-05-07T08:15:53;22.30;22.70
32895;DHT22;19251;49.484;8.260;2023-05-07T08:20:56;22.50;22.00
32895;DHT22;19251;49.484;8.260;2023-05-07T08:25:59;22.70;22.00
32895;DHT22;19251;49.484;8.260;2023-05-07T08:31:02;22.80;21.50
32895;DHT22;19251;49.484;8.260;2023-05-07T08:36:05;22.90;21.00
32895;DHT22;19251;49.484;8.260;2023-05-07T08:46:10;23.20;20.60
32895;DHT22;19251;49.484;8.260;2023-05-07T08:51:15;23.40;20.10
32895;DHT22;19251;49.484;8.260;2023-05-07T08:56:18;23.60;20.00
32895;DHT22;19251;49.484;8.260;2023-05-07T09:01:24;23.80;19.60
32895;DHT22;19251;49.484;8.260;2023-05-07T09:06:28;24.10;19.30
32895;DHT22;19251;49.484;8.260;2023-05-07T09:11:31;24.30;17.90
32895;DHT22;19251;49.484;8.260;2023-05-07T09:16:33;24.50;18.20
32895;DHT22;19251;49.484;8.260;2023-05-07T09:21:36;24.70;18.20
32895;DHT22;19251;49.484;8.260;2023-05-07T09:26:39;25.00;17.60
32895;DHT22;19251;49.484;8.260;2023-05-07T09:31:41;25.20;16.00
32895;DHT22;19251;49.484;8.260;2023-05-07T09:36:45;25.40;15.30
32895;DHT22;19251;49.484;8.260;2023-05-07T09:46:53;25.50;14.40
32895;DHT22;19251;49.484;8.260;2023-05-07T09:51:56;25.70;14.40
32895;DHT22;19251;49.484;8.260;2023-05-07T09:57:01;25.90;14.50
32895;DHT22;19251;49.484;8.260;2023-05-07T10:02:04;26.20;13.80
32895;DHT22;19251;49.484;8.260;2023-05-07T10:07:08;26.50;13.70
32895;DHT22;19251;49.484;8.260;2023-05-07T10:12:11;26.70;13.00
32895;DHT22;19251;49.484;8.260;2023-05-07T10:17:13;26.90;13.10
32895;DHT22;19251;49.484;8.260;2023-05-07T10:22:18;26.90;13.10
32895;DHT22;19251;49.484;8.260;2023-05-07T10:27:21;27.30;12.20
32895;DHT22;19251;49.484;8.260;2023-05-07T10:37:33;27.60;11.30
32895;DHT22;19251;49.484;8.260;2023-05-07T10:42:36;27.60;12.00
32895;DHT22;19251;49.484;8.260;2023-05-07T10:48:04;27.70;10.80
32895;DHT22;19251;49.484;8.260;2023-05-07T11:03:30;27.90;10.80
32895;DHT22;19251;49.484;8.260;2023-05-07T11:13:54;28.30;9.80
32895;DHT22;19251;49.484;8.260;2023-05-07T11:18:57;28.50;9.60
32895;DHT22;19251;49.484;8.260;2023-05-07T11:24:01;28.70;9.00
32895;DHT22;19251;49.484;8.260;2023-05-07T11:29:08;28.80;9.00
32895;DHT22;19251;49.484;8.260;2023-05-07T11:34:12;29.00;8.50
32895;DHT22;19251;49.484;8.260;2023-05-07T11:39:27;29.30;8.40
32895;DHT22;19251;49.484;8.260;2023-05-07T11:44:42;29.50;7.70
32895;DHT22;19251;49.484;8.260;2023-05-07T11:49:51;29.50;8.40
32895;DHT22;19251;49.484;8.260;2023-05-07T11:54:55;29.80;7.40
32895;DHT22;19251;49.484;8.260;2023-05-07T11:59:58;30.10;7.20
32895;DHT22;19251;49.484;8.260;2023-05-07T12:05:00;30.40;6.20
32895;DHT22;19251;49.484;8.260;2023-05-07T12:10:05;30.50;5.70
32895;DHT22;19251;49.484;8.260;2023-05-07T12:15:08;30.70;5.90
32895;DHT22;19251;49.484;8.260;2023-05-07T12:20:11;30.80;4.80
32895;DHT22;19251;49.484;8.260;2023-05-07T12:25:13;30.90;4.70
32895;DHT22;19251;49.484;8.260;2023-05-07T12:30:20;31.20;3.90
32895;DHT22;19251;49.484;8.260;2023-05-07T12:35:27;31.30;4.30
32895;DHT22;19251;49.484;8.260;2023-05-07T12:40:45;31.40;2.60
32895;DHT22;19251;49.484;8.260;2023-05-07T12:45:49;31.30;2.60
32895;DHT22;19251;49.484;8.260;2023-05-07T12:50:55;31.00;2.30
32895;DHT22;19251;49.484;8.260;2023-05-07T12:55:58;30.70;2.60
32895;DHT22;19251;49.484;8.260;2023-05-07T13:01:04;30.20;3.40
32895;DHT22;19251;49.484;8.260;2023-05-07T13:06:07;29.90;4.10
32895;DHT22;19251;49.484;8.260;2023-05-07T13:11:12;29.70;4.40
32895;DHT22;19251;49.484;8.260;2023-05-07T13:16:14;29.60;4.50
32895;DHT22;19251;49.484;8.260;2023-05-07T13:21:16;29.40;4.60
32895;DHT22;19251;49.484;8.260;2023-05-07T13:26:19;29.20;5.60
32895;DHT22;19251;49.484;8.260;2023-05-07T13:31:28;28.80;5.30
32895;DHT22;19251;49.484;8.260;2023-05-07T13:36:30;28.50;6.00
32895;DHT22;19251;49.484;8.260;2023-05-07T13:41:34;28.30;6.40
32895;DHT22;19251;49.484;8.260;2023-05-07T13:46:36;28.10;6.60
32895;DHT22;19251;49.484;8.260;2023-05-07T13:51:38;27.70;7.10
32895;DHT22;19251;49.484;8.260;2023-05-07T13:56:40;27.50;7.50
32895;DHT22;19251;49.484;8.260;2023-05-07T14:01:42;27.30;7.70
32895;DHT22;19251;49.484;8.260;2023-05-07T14:06:45;27.20;8.20
32895;DHT22;19251;49.484;8.260;2023-05-07T14:11:47;27.00;8.70
32895;DHT22;19251;49.484;8.260;2023-05-07T14:16:52;26.90;8.90
32895;DHT22;19251;49.484;8.260;2023-05-07T14:21:55;26.70;9.60
32895;DHT22;19251;49.484;8.260;2023-05-07T14:27:00;26.40;10.50
32895;DHT22;19251;49.484;8.260;2023-05-07T14:32:02;26.20;11.80
32895;DHT22;19251;49.484;8.260;2023-05-07T14:37:05;26.00;12.90
32895;DHT22;19251;49.484;8.260;2023-05-07T14:42:07;25.80;14.20
32895;DHT22;19251;49.484;8.260;2023-05-07T14:47:09;25.60;14.50
32895;DHT22;19251;49.484;8.260;2023-05-07T14:52:11;25.30;14.80
32895;DHT22;19251;49.484;8.260;2023-05-07T14:57:14;25.30;15.50
32895;DHT22;19251;49.484;8.260;2023-05-07T15:02:20;25.20;16.80
32895;DHT22;19251;49.484;8.260;2023-05-07T15:07:23;25.00;16.70
32895;DHT22;19251;49.484;8.260;2023-05-07T15:12:25;25.00;17.10
32895;DHT22;19251;49.484;8.260;2023-05-07T15:17:28;24.80;17.40
32895;DHT22;19251;49.484;8.260;2023-05-07T15:22:30;24.60;18.10
32895;DHT22;19251;49.484;8.260;2023-05-07T15:27:32;24.40;18.10
32895;DHT22;19251;49.484;8.260;2023-05-07T15:32:34;24.30;18.20
32895;DHT22;19251;49.484;8.260;2023-05-07T15:37:36;23.90;18.20
32895;DHT22;19251;49.484;8.260;2023-05-07T15:42:38;23.90;18.90
32895;DHT22;19251;49.484;8.260;2023-05-07T15:47:40;23.50;18.50
32895;DHT22;19251;49.484;8.260;2023-05-07T15:52:42;23.20;18.70
32895;DHT22;19251;49.484;8.260;2023-05-07T15:57:46;23.20;19.40
32895;DHT22;19251;49.484;8.260;2023-05-07T16:02:48;22.90;19.20
32895;DHT22;19251;49.484;8.260;2023-05-07T16:07:51;22.90;19.50
32895;DHT22;19251;49.484;8.260;2023-05-07T16:12:53;22.90;19.70
32895;DHT22;19251;49.484;8.260;2023-05-07T16:17:55;22.80;19.90
32895;DHT22;19251;49.484;8.260;2023-05-07T16:23:00;22.70;20.20
32895;DHT22;19251;49.484;8.260;2023-05-07T16:28:02;22.50;20.50
32895;DHT22;19251;49.484;8.260;2023-05-07T16:33:04;22.50;21.00
32895;DHT22;19251;49.484;8.260;2023-05-07T16:38:06;22.40;20.90
32895;DHT22;19251;49.484;8.260;2023-05-07T16:43:12;22.30;21.50
32895;DHT22;19251;49.484;8.260;2023-05-07T16:48:14;22.30;22.00
32895;DHT22;19251;49.484;8.260;2023-05-07T16:53:16;22.10;22.00
32895;DHT22;19251;49.484;8.260;2023-05-07T16:58:18;22.00;22.40
32895;DHT22;19251;49.484;8.260;2023-05-07T17:03:20;21.90;22.30
32895;DHT22;19251;49.484;8.260;2023-05-07T17:08:22;21.80;22.80
32895;DHT22;19251;49.484;8.260;2023-05-07T17:13:24;21.70;22.90
32895;DHT22;19251;49.484;8.260;2023-05-07T17:18:26;21.60;23.00
32895;DHT22;19251;49.484;8.260;2023-05-07T17:23:28;21.50;23.10
32895;DHT22;19251;49.484;8.260;2023-05-07T17:28:30;21.40;23.40
32895;DHT22;19251;49.484;8.260;2023-05-07T17:33:34;21.40;23.60
32895;DHT22;19251;49.484;8.260;2023-05-07T17:38:36;21.30;23.80
32895;DHT22;19251;49.484;8.260;2023-05-07T17:43:38;21.20;23.90
32895;DHT22;19251;49.484;8.260;2023-05-07T17:48:41;21.10;23.90
32895;DHT22;19251;49.484;8.260;2023-05-07T17:53:43;21.10;24.20
32895;DHT22;19251;49.484;8.260;2023-05-07T17:58:45;21.00;24.40
32895;DHT22;19251;49.484;8.260;2023-05-07T18:04:00;21.00;24.60
32895;DHT22;19251;49.484;8.260;2023-05-07T18:09:03;20.90;24.70
32895;DHT22;19251;49.484;8.260;2023-05-07T18:14:05;20.80;24.90
32895;DHT22;19251;49.484;8.260;2023-05-07T18:19:07;20.80;25.00
32895;DHT22;19251;49.484;8.260;2023-05-07T18:24:09;20.70;25.10
32895;DHT22;19251;49.484;8.260;2023-05-07T18:29:12;20.70;25.30
32895;DHT22;19251;49.484;8.260;2023-05-07T18:34:14;20.60;25.80
32895;DHT22;19251;49.484;8.260;2023-05-07T18:39:16;20.50;25.70
32895;DHT22;19251;49.484;8.260;2023-05-07T18:44:18;20.40;25.90
32895;DHT22;19251;49.484;8.260;2023-05-07T18:49:20;20.40;26.00
32895;DHT22;19251;49.484;8.260;2023-05-07T18:54:22;20.30;26.10
32895;DHT22;19251;49.484;8.260;2023-05-07T18:59:25;20.30;26.20
32895;DHT22;19251;49.484;8.260;2023-05-07T19:04:27;20.30;26.30
32895;DHT22;19251;49.484;8.260;2023-05-07T19:09:30;20.30;26.30
32895;DHT22;19251;49.484;8.260;2023-05-07T19:14:33;20.30;26.40
32895;DHT22;19251;49.484;8.260;2023-05-07T19:19:35;20.30;26.50
32895;DHT22;19251;49.484;8.260;2023-05-07T19:24:37;20.30;26.40
32895;DHT22;19251;49.484;8.260;2023-05-07T19:29:39;20.30;26.50
32895;DHT22;19251;49.484;8.260;2023-05-07T19:34:41;20.30;26.60
32895;DHT22;19251;49.484;8.260;2023-05-07T19:39:43;20.20;26.50
32895;DHT22;19251;49.484;8.260;2023-05-07T19:44:45;20.20;26.70
32895;DHT22;19251;49.484;8.260;2023-05-07T19:54:50;20.00;27.10
32895;DHT22;19251;49.484;8.260;2023-05-07T19:59:52;19.90;27.10
32895;DHT22;19251;49.484;8.260;2023-05-07T20:04:54;19.80;27.10
32895;DHT22;19251;49.484;8.260;2023-05-07T20:09:56;19.80;27.20
32895;DHT22;19251;49.484;8.260;2023-05-07T20:14:58;19.70;27.30
32895;DHT22;19251;49.484;8.260;2023-05-07T20:20:00;19.70;27.30
32895;DHT22;19251;49.484;8.260;2023-05-07T20:25:02;19.70;27.40
32895;DHT22;19251;49.484;8.260;2023-05-07T20:30:05;19.70;27.40
32895;DHT22;19251;49.484;8.260;2023-05-07T20:35:08;19.70;27.50
32895;DHT22;19251;49.484;8.260;2023-05-07T20:40:10;19.60;27.50
32895;DHT22;19251;49.484;8.260;2023-05-07T20:45:13;19.60;27.70
32895;DHT22;19251;49.484;8.260;2023-05-07T20:50:15;19.50;27.70
32895;DHT22;19251;49.484;8.260;2023-05-07T20:55:17;19.60;27.80
32895;DHT22;19251;49.484;8.260;2023-05-07T21:00:19;19.60;27.80
32895;DHT22;19251;49.484;8.260;2023-05-07T21:05:21;19.50;27.70
32895;DHT22;19251;49.484;8.260;2023-05-07T21:10:24;19.50;27.80
32895;DHT22;19251;49.484;8.260;2023-05-07T21:20:28;19.40;27.90
32895;DHT22;19251;49.484;8.260;2023-05-07T21:25:30;19.30;27.90
32895;DHT22;19251;49.484;8.260;2023-05-07T21:30:32;19.30;28.00
32895;DHT22;19251;49.484;8.260;2023-05-07T21:35:35;19.30;28.10
32895;DHT22;19251;49.484;8.260;2023-05-07T21:40:37;19.30;28.20
32895;DHT22;19251;49.484;8.260;2023-05-07T21:45:40;19.30;28.30
32895;DHT22;19251;49.484;8.260;2023-05-07T21:50:42;19.20;28.30
32895;DHT22;19251;49.484;8.260;2023-05-07T21:55:44;19.20;28.20
32895;DHT22;19251;49.484;8.260;2023-05-07T22:00:46;19.20;28.30
32895;DHT22;19251;49.484;8.260;2023-05-07T22:05:48;19.20;28.40
32895;DHT22;19251;49.484;8.260;2023-05-07T22:10:51;19.20;28.60
32895;DHT22;19251;49.484;8.260;2023-05-07T22:15:53;19.20;28.70
32895;DHT22;19251;49.484;8.260;2023-05-07T22:20:59;19.20;28.70
32895;DHT22;19251;49.484;8.260;2023-05-07T22:26:08;19.20;28.80
32895;DHT22;19251;49.484;8.260;2023-05-07T22:31:10;19.20;28.80
32895;DHT22;19251;49.484;8.260;2023-05-07T22:36:12;19.10;29.00
32895;DHT22;19251;49.484;8.260;2023-05-07T22:41:14;19.10;28.90
32895;DHT22;19251;49.484;8.260;2023-05-07T22:46:16;19.10;29.10
32895;DHT22;19251;49.484;8.260;2023-05-07T22:51:19;19.10;29.10
32895;DHT22;19251;49.484;8.260;2023-05-07T22:56:21;19.10;29.70
32895;DHT22;19251;49.484;8.260;2023-05-07T23:06:25;19.00;29.30
32895;DHT22;19251;49.484;8.260;2023-05-07T23:11:28;19.00;29.30
32895;DHT22;19251;49.484;8.260;2023-05-07T23:16:30;19.00;29.40
32895;DHT22;19251;49.484;8.260;2023-05-07T23:21:32;19.00;29.50
32895;DHT22;19251;49.484;8.260;2023-05-07T23:26:34;19.00;29.70
32895;DHT22;19251;49.484;8.260;2023-05-07T23:31:36;19.00;29.70
32895;DHT22;19251;49.484;8.260;2023-05-07T23:36:38;19.00;29.80
32895;DHT22;19251;49.484;8.260;2023-05-07T23:41:40;19.00;30.00
32895;DHT22;19251;49.484;8.260;2023-05-07T23:46:42;19.00;29.90
32895;DHT22;19251;49.484;8.260;2023-05-07T23:51:45;19.00;29.90
32895;DHT22;19251;49.484;8.260;2023-05-07T23:56:47;19.00;30.00
